Wetterstation Rottenburg Seebronn / 442m msl / http://mut-lambrecht.de
LETZTE AKTUALISIERUNG UM: 21:15 DATUM: März 01 2024, time of next update: 21:20
Aktuelles WetterClear/Night Aktuelle Temperatur 5.5°C (41.9°F), Apparent temp 4.4°C
Höchsttemperatur (seit Mitternacht)10.6°C um: 15:56 Tiefsttemperatur (seit Mitternacht)1.6°C um: 00:00
Windgeschwindigkeit (10 Minuten )0.0 kmh (0.0 kts) Windrichtung (Dir) (10 Minuten )WSW (243°)
Windchill Temperatur 5.5°C Windspitzen (letzte Std)4.1 kmh (2.2 kts) um: 21:14
Windspitzen (seit Mitternacht)22.5 kmh (12.2 kts) um: 14:37 Höchstes Windmittel / Minute (seit Mitternacht)11.1 kmh (6.0 kts) um: 11:42
Regenmenge (letzte Std)0.0 mm Regenmenge (seit Mitternacht)0.8 mm (0.03 in.) at 10:45
Regenmenge diesen Monat 0.8 mm (0.03 in.) Regenmenge seit Jahresbeginn 93.5 mm (3.68 in.)
Höchste Regenmenge pro Minute (letzte Std)0.0 mm/min Höchste Regenmenge pro Stunde (letzte 6 Std)0.0 mm/stunde
Regenmenge Gestern 0.0 mm Taupunkt 2.5°C (Wet Bulb :4.3°C )
Luftfeuchtigkeit 81 %, Humidex 4.0°C Aktueller Luftdruck (auf Meereshöhe bezogen)1005.0 hPa
Luftdrucktendenz -0.3 hPa (letzte Std) Trend (letzte 1 Std)gleichbleibend
Luftdrucktendenz (letzte 12 Std)-1.9 hPa Luftdrucktendenz (letzte 6 Std)-1.3 hPa



Weather report/warning/Metars

Stuttgart-Echterdingen, Germany (EDDS) 48-41N 009-13E 391M
Mar 01, 2024 - 02:50 PM EST / 2024.03.01 1950 UTC
Wind: Variable at 1 MPH (1 KT):0
Visibility: greater than 7 mile(s):0
Temperature: 44 F (7 C)
Dew Point: 41 F (5 C)
Relative Humidity: 87%
Pressure (altimeter): 29.71 in. Hg (1006 hPa)
ob: EDDS 011950Z AUTO VRB01KT CAVOK 07/05 Q1006 NOSIG
cycle: 20
Karlsruhe, Baden Wurttemberg, Germany (EDSB) 48-46-43N 008-04-47E
Mar 01, 2024 - 02:20 PM EST / 2024.03.01 1920 UTC
Wind: from the ESE (120 degrees) at 3 MPH (3 KT) (direction variable):0
Visibility: greater than 7 mile(s):0
Temperature: 42 F (6 C)
Dew Point: 37 F (3 C)
Relative Humidity: 81%
Pressure (altimeter): 29.71 in. Hg (1006 hPa)
ob: EDSB 011920Z 12003KT 080V160 CAVOK 06/03 Q1006
cycle: 19
Lahr, CAN-AFB, Germany (EDTL) 48-22-09N 007-49-40E
Mar 01, 2024 - 02:50 PM EST / 2024.03.01 1950 UTC
Wind: from the SE (130 degrees) at 5 MPH (4 KT):0
Visibility: greater than 7 mile(s):0
Sky conditions: partly cloudy
Temperature: 46 F (8 C)
Dew Point: 37 F (3 C)
Relative Humidity: 70%
Pressure (altimeter): 29.71 in. Hg (1006 hPa)
ob: EDTL 011950Z AUTO 13004KT 9999 // SCT160/// 08/03 Q1006
cycle: 20
Laupheim, Germany (ETHL) 48-13N 009-55E 550M
Mar 01, 2024 - 02:20 PM EST / 2024.03.01 1920 UTC
Wind: from the S (170 degrees) at 5 MPH (4 KT):0
Visibility: greater than 7 mile(s):0
Sky conditions: mostly cloudy
Temperature: 42 F (6 C)
Dew Point: 41 F (5 C)
Relative Humidity: 93%
Pressure (altimeter): 29.71 in. Hg (1006 hPa)
ob: ETHL 011920Z 17004KT 9999 FEW020 BKN050 06/05 Q1006 BLU
cycle: 19


Klicken Sie hier, um zu den Durchschnitts-, Extrem-, Monats- oder Tageswerten zu gelangen


Die Wetterdaten werden alle 5 Minuten aktualisiert.
Die 3 stündige Echtzeitgrafik wird jede Minute aktualisiert.
Bei der 3 stündige Echtzeitgrafik sind derzeit die Skalenfarben von Winddurchschnitt u. Windböen vertauscht. (Softwarebug)

Drücken Sie gegebenenfalls auf "Aktualisieren" in Ihrem Browser, um die aktuellsten Daten zu erhalten.